Terminal Aerodrome Forecast
Issued by NWS New Orleans/Baton Rouge, LA

Home | Current Version | Previous Version | Text Only | Print | Product List | Glossary On
Versions: 1 2 3 4 5 6 7 8 9 10 11 12 13 14 15 16 17 18 19 20 21 22 23 24
000
FTUS44 KLIX 261139
TAFBTR
TAF
KBTR 261139Z 2612/2712 34004KT 5SM RA OVC040
     FM261400 27005KT P6SM OVC035
     FM261800 17007KT P6SM VCTS SCT035CB BKN090
     FM270300 14005KT P6SM SCT040 BKN080
     FM270800 VRB03KT P6SM BKN015=

USA.gov is the U.S. government's official web portal to all federal, state and local government web resources and services.